createdAt,value
2023-03-02T00:00:01.840Z,90.78
2023-03-02T00:02:29.103Z,90.23
2023-03-02T00:04:55.450Z,90.44
2023-03-02T00:07:21.742Z,91.27
2023-03-02T00:09:48.057Z,91.61
2023-03-02T00:12:14.398Z,90.36
2023-03-02T00:14:40.825Z,89.40
2023-03-02T00:17:08.126Z,89.03
2023-03-02T00:19:34.594Z,89.83
2023-03-02T00:22:00.968Z,90.18
2023-03-02T00:24:27.293Z,89.83
2023-03-02T00:26:53.653Z,91.99
2023-03-02T00:29:19.989Z,93.33
2023-03-02T00:31:46.453Z,94.42
2023-03-02T00:34:12.794Z,94.13
2023-03-02T00:36:39.146Z,93.38
2023-03-02T00:39:05.726Z,94.40
2023-03-02T00:41:32.059Z,93.78
2023-03-02T00:43:58.356Z,92.76
2023-03-02T00:46:24.704Z,93.64
2023-03-02T00:48:51.059Z,94.40
2023-03-02T00:51:17.817Z,93.83
2023-03-02T00:53:44.148Z,93.49
2023-03-02T00:56:10.465Z,92.41
2023-03-02T00:58:36.815Z,92.64
2023-03-02T01:01:03.150Z,92.91
2023-03-02T01:03:29.566Z,93.32
2023-03-02T01:05:56.441Z,92.10
2023-03-02T01:08:22.987Z,91.67
2023-03-02T01:10:49.345Z,92.44
2023-03-02T01:13:15.729Z,92.80
2023-03-02T01:15:42.024Z,93.03
2023-03-02T01:18:08.321Z,92.17
2023-03-02T01:20:34.639Z,92.67
2023-03-02T01:23:00.991Z,92.68
2023-03-02T01:25:27.299Z,92.54
2023-03-02T01:27:53.607Z,93.38
2023-03-02T01:30:19.927Z,93.09
2023-03-02T01:32:46.285Z,93.10
2023-03-02T01:35:12.634Z,94.34
2023-03-02T01:37:38.929Z,93.94
2023-03-02T01:40:06.853Z,93.65
2023-03-02T01:42:33.182Z,94.31
2023-03-02T01:44:59.594Z,93.97
2023-03-02T01:47:25.929Z,93.44
2023-03-02T01:49:52.313Z,92.85
2023-03-02T01:52:18.644Z,93.69
2023-03-02T01:54:45.006Z,93.64
2023-03-02T01:57:11.399Z,93.65
2023-03-02T01:59:37.710Z,94.22
2023-03-02T02:02:04.046Z,94.13
2023-03-02T02:04:30.378Z,93.58
2023-03-02T02:06:56.690Z,93.38
2023-03-02T02:09:23.025Z,93.57
2023-03-02T02:11:49.375Z,94.57
2023-03-02T02:14:15.767Z,94.79
2023-03-02T02:16:42.099Z,94.22
2023-03-02T02:19:08.499Z,95.01
2023-03-02T02:21:34.837Z,95.87
2023-03-02T02:24:01.160Z,94.60
2023-03-02T02:26:27.525Z,94.56
2023-03-02T02:28:57.738Z,94.70
2023-03-02T02:31:26.797Z,96.98
2023-03-02T02:33:53.291Z,97.55
2023-03-02T02:36:19.676Z,98.28
2023-03-02T02:38:47.990Z,99.08
2023-03-02T02:41:14.358Z,98.79
2023-03-02T02:43:40.708Z,96.29
2023-03-02T02:46:07.090Z,95.22
2023-03-02T02:48:33.481Z,94.78
2023-03-02T02:51:03.397Z,94.54
2023-03-02T02:53:29.778Z,94.31
2023-03-02T02:55:56.082Z,94.84
2023-03-02T02:58:22.411Z,95.44
2023-03-02T03:00:48.761Z,95.34
2023-03-02T03:03:29.360Z,94.96
2023-03-02T03:05:55.718Z,93.71
2023-03-02T03:08:22.018Z,93.60
2023-03-02T03:10:48.383Z,94.48
2023-03-02T03:13:14.749Z,94.39
2023-03-02T03:15:41.151Z,94.36
2023-03-02T03:18:07.457Z,94.64
2023-03-02T03:20:33.755Z,95.85
2023-03-02T03:23:00.892Z,95.25
2023-03-02T03:25:27.235Z,95.00
2023-03-02T03:27:53.560Z,94.97
2023-03-02T03:30:19.870Z,94.12
2023-03-02T03:32:46.185Z,93.92
2023-03-02T03:35:12.922Z,94.12
2023-03-02T03:37:39.253Z,95.48
2023-03-02T03:40:06.213Z,97.07
2023-03-02T03:42:32.710Z,96.63
2023-03-02T03:44:59.030Z,96.66
2023-03-02T03:47:25.336Z,98.83
2023-03-02T03:49:51.662Z,99.73
2023-03-02T03:52:17.986Z,98.24
2023-03-02T03:54:44.305Z,99.22
2023-03-02T03:57:12.227Z,99.32
2023-03-02T03:59:38.562Z,97.44
2023-03-02T04:02:04.888Z,96.07
2023-03-02T04:04:31.214Z,95.32
2023-03-02T04:06:57.533Z,95.11
2023-03-02T04:09:23.912Z,94.97
2023-03-02T04:11:50.238Z,95.36
2023-03-02T04:14:16.551Z,96.29
2023-03-02T04:16:42.960Z,96.57
2023-03-02T04:19:09.724Z,97.06
2023-03-02T04:21:36.070Z,97.15
2023-03-02T04:24:02.364Z,95.89
2023-03-02T04:26:28.702Z,95.76
2023-03-02T04:28:55.006Z,95.73
2023-03-02T04:31:21.398Z,95.69
2023-03-02T04:33:47.723Z,97.16
2023-03-02T04:36:14.067Z,96.35
2023-03-02T04:38:40.410Z,95.83
2023-03-02T04:41:06.736Z,94.86
2023-03-02T04:43:33.053Z,95.10
2023-03-02T04:45:59.385Z,96.09
2023-03-02T04:48:25.859Z,95.86
2023-03-02T04:50:52.205Z,95.22
2023-03-02T04:53:18.544Z,95.62
2023-03-02T04:55:44.914Z,96.51
2023-03-02T04:58:11.235Z,96.17
2023-03-02T05:00:37.749Z,95.92
2023-03-02T05:03:04.137Z,95.58
2023-03-02T05:05:30.451Z,95.17
2023-03-02T05:07:58.586Z,95.71
2023-03-02T05:10:25.121Z,95.37
2023-03-02T05:12:54.887Z,95.04
2023-03-02T05:15:21.234Z,95.90
2023-03-02T05:17:47.541Z,96.04
2023-03-02T05:20:13.885Z,94.83
2023-03-02T05:22:40.202Z,95.00
2023-03-02T05:25:06.562Z,95.29
2023-03-02T05:27:32.886Z,94.47
2023-03-02T05:29:59.250Z,95.24
2023-03-02T05:32:25.582Z,96.57
2023-03-02T05:34:51.966Z,96.62
2023-03-02T05:37:18.540Z,98.19
2023-03-02T05:39:44.920Z,97.66
2023-03-02T05:42:11.224Z,96.00
2023-03-02T05:44:37.525Z,95.60
2023-03-02T05:47:03.887Z,95.73
2023-03-02T05:49:30.186Z,96.96
2023-03-02T05:51:56.598Z,98.38
2023-03-02T05:54:22.910Z,98.41
2023-03-02T05:56:50.340Z,97.47
2023-03-02T05:59:16.751Z,97.93
2023-03-02T06:01:43.185Z,98.22
2023-03-02T06:04:09.531Z,96.86
2023-03-02T06:06:36.187Z,95.95
2023-03-02T06:09:02.673Z,96.98
2023-03-02T06:11:30.328Z,97.12
2023-03-02T06:13:56.645Z,97.25
2023-03-02T06:16:23.013Z,96.54
2023-03-02T06:18:49.374Z,96.94
2023-03-02T06:21:15.738Z,96.73
2023-03-02T06:23:42.032Z,96.24
2023-03-02T06:26:08.378Z,95.86
2023-03-02T06:28:49.822Z,95.19
2023-03-02T06:31:18.184Z,94.37
2023-03-02T06:33:44.524Z,93.96
2023-03-02T06:36:12.733Z,92.93
2023-03-02T06:38:39.278Z,93.06
2023-03-02T06:41:05.597Z,92.80
2023-03-02T06:43:31.896Z,94.47
2023-03-02T06:46:00.900Z,95.97
2023-03-02T06:48:27.337Z,96.69
2023-03-02T06:50:53.651Z,95.33
2023-03-02T06:53:22.905Z,96.72
2023-03-02T06:55:49.269Z,98.26
2023-03-02T06:58:15.633Z,97.42
2023-03-02T07:00:41.936Z,97.13
2023-03-02T07:03:08.271Z,97.38
2023-03-02T07:05:35.933Z,96.73
2023-03-02T07:08:02.225Z,94.68
2023-03-02T07:10:28.970Z,93.39
2023-03-02T07:12:55.321Z,93.43
2023-03-02T07:15:22.180Z,92.70
2023-03-02T07:17:48.471Z,91.11
2023-03-02T07:20:14.810Z,89.61
2023-03-02T07:22:41.173Z,88.39
2023-03-02T07:25:07.481Z,87.16
2023-03-02T07:27:33.869Z,86.17
2023-03-02T07:30:00.200Z,84.85
2023-03-02T07:32:26.572Z,84.21
2023-03-02T07:34:52.991Z,83.42
2023-03-02T07:37:19.279Z,82.61
2023-03-02T07:39:45.581Z,83.40
2023-03-02T07:42:11.921Z,82.27
2023-03-02T07:44:38.244Z,80.59
2023-03-02T07:47:04.607Z,79.60
2023-03-02T07:49:31.052Z,79.81
2023-03-02T07:51:57.368Z,80.27
2023-03-02T07:54:26.573Z,78.12
2023-03-02T07:56:52.891Z,77.17
2023-03-02T07:59:19.222Z,77.08
2023-03-02T08:01:45.624Z,75.19
2023-03-02T08:04:11.948Z,74.17
2023-03-02T08:06:38.258Z,77.05
2023-03-02T08:09:04.626Z,74.15
2023-03-02T08:11:31.270Z,72.68
2023-03-02T08:13:57.877Z,71.16
2023-03-02T08:16:26.481Z,70.35
2023-03-02T08:18:52.883Z,70.49
2023-03-02T08:21:19.347Z,71.83
2023-03-02T08:23:45.782Z,72.03
2023-03-02T08:26:14.248Z,71.46
2023-03-02T08:28:42.093Z,74.13
2023-03-02T08:31:08.438Z,70.89
2023-03-02T08:33:34.939Z,70.54
2023-03-02T08:36:01.327Z,69.13
2023-03-02T08:38:27.733Z,68.18
2023-03-02T08:40:54.063Z,69.10
2023-03-02T08:43:20.477Z,67.60
2023-03-02T08:45:46.833Z,65.85
2023-03-02T08:48:13.170Z,66.36
2023-03-02T08:50:39.493Z,65.82
2023-03-02T08:53:05.796Z,64.56
2023-03-02T08:55:32.151Z,64.58
2023-03-02T08:57:58.470Z,68.08
2023-03-02T09:00:24.775Z,64.78
2023-03-02T09:02:51.089Z,62.74
2023-03-02T09:05:17.413Z,62.73
2023-03-02T09:07:43.738Z,62.61
2023-03-02T09:10:10.056Z,65.05
2023-03-02T09:12:36.387Z,64.54
2023-03-02T09:15:02.785Z,64.84
2023-03-02T09:17:29.152Z,63.65
2023-03-02T09:19:55.517Z,65.46
2023-03-02T09:22:21.817Z,63.03
2023-03-02T09:24:48.132Z,64.39
2023-03-02T09:27:14.440Z,61.46
2023-03-02T09:29:40.828Z,61.21
2023-03-02T09:32:07.279Z,61.30
2023-03-02T09:34:33.757Z,60.92
2023-03-02T09:37:00.112Z,59.34
2023-03-02T09:39:26.461Z,57.87
2023-03-02T09:41:52.762Z,57.98
2023-03-02T09:44:19.110Z,58.95
2023-03-02T09:46:45.454Z,56.03
2023-03-02T09:49:11.809Z,57.03
2023-03-02T09:51:39.349Z,56.41
2023-03-02T09:54:05.726Z,55.22
2023-03-02T09:56:32.382Z,55.24
2023-03-02T09:58:58.916Z,54.19
2023-03-02T10:01:25.243Z,57.35
2023-03-02T10:03:51.724Z,55.28
2023-03-02T10:06:18.148Z,54.73
2023-03-02T10:08:44.615Z,55.04
2023-03-02T10:11:10.950Z,54.21
2023-03-02T10:13:37.321Z,56.74
2023-03-02T10:16:03.770Z,56.98
2023-03-02T10:18:30.172Z,58.13
2023-03-02T10:20:56.577Z,55.57
2023-03-02T10:23:22.963Z,55.20
2023-03-02T10:25:49.271Z,55.84
2023-03-02T10:28:15.597Z,54.25
2023-03-02T10:30:42.063Z,53.56
2023-03-02T10:33:08.400Z,53.82
2023-03-02T10:35:34.767Z,52.12
2023-03-02T10:38:01.133Z,53.87
2023-03-02T10:40:27.462Z,53.82
2023-03-02T10:42:53.757Z,51.86
2023-03-02T10:45:20.048Z,53.71
2023-03-02T10:47:46.367Z,49.94
2023-03-02T10:50:12.689Z,52.00
2023-03-02T10:52:41.051Z,47.81
2023-03-02T10:55:08.760Z,47.52
2023-03-02T10:57:35.072Z,46.14
2023-03-02T11:00:01.511Z,48.29
2023-03-02T11:02:28.359Z,45.79
2023-03-02T11:04:57.355Z,44.46
2023-03-02T11:07:23.989Z,43.36
2023-03-02T11:09:50.292Z,43.36
2023-03-02T11:12:16.831Z,41.91
2023-03-02T11:14:43.470Z,43.39
2023-03-02T11:17:09.791Z,43.67
2023-03-02T11:19:36.371Z,41.90
2023-03-02T11:22:02.695Z,41.27
2023-03-02T11:24:28.997Z,41.56
2023-03-02T11:26:55.331Z,41.24
2023-03-02T11:29:22.754Z,41.09
2023-03-02T11:31:49.307Z,40.19
2023-03-02T11:34:17.951Z,39.86
2023-03-02T11:36:44.774Z,40.13
2023-03-02T11:39:11.111Z,38.61
2023-03-02T11:41:37.456Z,39.33
2023-03-02T11:44:03.825Z,37.87
2023-03-02T11:46:33.778Z,35.93
2023-03-02T11:49:00.245Z,37.51
2023-03-02T11:51:26.585Z,36.64
2023-03-02T11:53:53.057Z,35.88
2023-03-02T11:56:19.479Z,37.45
2023-03-02T11:58:45.795Z,39.22
2023-03-02T12:01:12.124Z,36.61
2023-03-02T12:03:38.595Z,36.18
2023-03-02T12:06:06.696Z,32.81
2023-03-02T12:08:33.533Z,35.37
2023-03-02T12:10:59.840Z,34.35
2023-03-02T12:13:26.254Z,34.18
2023-03-02T12:15:52.630Z,31.45
2023-03-02T12:18:18.993Z,31.75
2023-03-02T12:20:45.355Z,33.09
2023-03-02T12:23:11.739Z,33.26
2023-03-02T12:25:38.083Z,34.10
2023-03-02T12:28:04.516Z,33.40
2023-03-02T12:30:31.724Z,33.52
2023-03-02T12:32:58.033Z,32.87
2023-03-02T12:35:24.394Z,33.62
2023-03-02T12:37:51.934Z,33.90
2023-03-02T12:40:18.260Z,34.42
2023-03-02T12:42:44.596Z,34.86
2023-03-02T12:45:10.927Z,35.27
2023-03-02T12:47:37.306Z,34.24
2023-03-02T12:50:03.644Z,35.82
2023-03-02T12:52:30.065Z,35.39
2023-03-02T12:54:56.406Z,35.61
2023-03-02T12:57:22.720Z,36.65
2023-03-02T12:59:49.095Z,35.84
2023-03-02T13:02:15.476Z,35.69
2023-03-02T13:04:41.807Z,35.12
2023-03-02T13:07:08.188Z,35.13
2023-03-02T13:09:34.967Z,36.02
2023-03-02T13:12:02.237Z,35.43
2023-03-02T13:14:28.569Z,35.67
2023-03-02T13:16:54.964Z,36.63
2023-03-02T13:19:21.306Z,37.24
2023-03-02T13:21:47.672Z,37.01
2023-03-02T13:24:13.968Z,37.29
2023-03-02T13:26:40.508Z,37.03
2023-03-02T13:29:06.968Z,36.51
2023-03-02T13:31:33.365Z,35.19
2023-03-02T13:33:59.781Z,36.25
2023-03-02T13:36:26.105Z,37.47
2023-03-02T13:38:52.418Z,37.75
2023-03-02T13:41:18.795Z,36.29
2023-03-02T13:43:45.140Z,36.47
2023-03-02T13:46:11.534Z,37.92
2023-03-02T13:48:37.864Z,38.43
2023-03-02T13:51:04.446Z,38.48
2023-03-02T13:53:30.808Z,38.73
2023-03-02T13:55:57.105Z,37.76
2023-03-02T13:58:23.495Z,37.66
2023-03-02T14:00:49.904Z,38.01
2023-03-02T14:03:16.236Z,38.07
2023-03-02T14:05:42.563Z,38.11
2023-03-02T14:08:08.999Z,38.19
2023-03-02T14:10:35.360Z,37.50
2023-03-02T14:13:01.729Z,38.19
2023-03-02T14:15:28.095Z,38.82
2023-03-02T14:17:54.484Z,38.47
2023-03-02T14:20:20.833Z,38.32
2023-03-02T14:22:47.195Z,38.39
2023-03-02T14:25:13.566Z,38.00
2023-03-02T14:27:39.962Z,38.21
2023-03-02T14:30:06.283Z,36.57
2023-03-02T14:32:32.713Z,37.55
2023-03-02T14:34:59.136Z,38.08
2023-03-02T14:37:25.450Z,37.78
2023-03-02T14:39:54.219Z,37.62
2023-03-02T14:42:21.533Z,37.95
2023-03-02T14:44:47.899Z,37.80
2023-03-02T14:47:16.618Z,37.60
2023-03-02T14:49:42.947Z,38.34
2023-03-02T14:52:09.348Z,37.89
2023-03-02T14:54:35.662Z,38.92
2023-03-02T14:57:02.107Z,37.87
2023-03-02T14:59:28.444Z,38.60
2023-03-02T15:01:57.546Z,38.90
2023-03-02T15:04:24.535Z,38.81
2023-03-02T15:06:50.890Z,38.53
2023-03-02T15:09:17.579Z,38.86
2023-03-02T15:11:43.921Z,38.92
2023-03-02T15:14:10.265Z,39.35
2023-03-02T15:16:36.614Z,39.57
2023-03-02T15:19:03.484Z,38.81
2023-03-02T15:21:29.896Z,39.33
2023-03-02T15:23:56.305Z,39.10
2023-03-02T15:26:22.739Z,39.70
2023-03-02T15:28:49.073Z,39.41
2023-03-02T15:31:15.472Z,39.41
2023-03-02T15:33:41.945Z,39.68
2023-03-02T15:36:08.331Z,39.87
2023-03-02T15:38:35.856Z,41.70
2023-03-02T15:41:02.162Z,40.12
2023-03-02T15:43:28.502Z,40.11
2023-03-02T15:45:54.845Z,40.40
2023-03-02T15:48:21.165Z,41.24
2023-03-02T15:50:47.485Z,41.29
2023-03-02T15:53:13.804Z,42.18
2023-03-02T15:55:40.123Z,41.91
2023-03-02T15:58:08.295Z,41.31
2023-03-02T16:00:37.848Z,41.99
2023-03-02T16:03:04.919Z,41.43
2023-03-02T16:05:34.342Z,42.38
2023-03-02T16:08:00.735Z,42.48
2023-03-02T16:10:30.177Z,43.03
2023-03-02T16:12:56.500Z,44.38
2023-03-02T16:15:22.812Z,43.43
2023-03-02T16:17:49.201Z,44.22
2023-03-02T16:20:15.523Z,44.44
2023-03-02T16:22:41.885Z,44.61
2023-03-02T16:25:08.197Z,44.73
2023-03-02T16:27:34.504Z,44.48
2023-03-02T16:30:00.825Z,46.54
2023-03-02T16:32:27.194Z,45.77
2023-03-02T16:34:53.547Z,45.39
2023-03-02T16:37:19.884Z,46.37
2023-03-02T16:39:58.384Z,45.47
2023-03-02T16:42:24.797Z,45.67
2023-03-02T16:44:51.216Z,46.99
2023-03-02T16:47:17.583Z,48.26
2023-03-02T16:49:43.921Z,49.96
2023-03-02T16:52:10.341Z,49.83
2023-03-02T16:54:36.649Z,50.86
2023-03-02T16:57:04.905Z,52.09
2023-03-02T16:59:31.473Z,53.37
2023-03-02T17:02:00.891Z,54.26
2023-03-02T17:04:27.283Z,56.45
2023-03-02T17:07:01.440Z,56.84
2023-03-02T17:09:28.395Z,56.02
2023-03-02T17:11:54.784Z,57.91
2023-03-02T17:14:21.173Z,57.46
2023-03-02T17:16:47.539Z,57.61
2023-03-02T17:19:13.866Z,58.70
2023-03-02T17:21:41.897Z,58.51
2023-03-02T17:24:08.234Z,58.34
2023-03-02T17:26:34.602Z,57.11
2023-03-02T17:29:00.961Z,57.74
2023-03-02T17:31:27.263Z,59.30
2023-03-02T17:33:53.623Z,59.22
2023-03-02T17:36:19.941Z,59.90
2023-03-02T17:38:46.338Z,61.49
2023-03-02T17:41:12.716Z,61.32
2023-03-02T17:43:39.069Z,60.52
2023-03-02T17:46:05.765Z,62.73
2023-03-02T17:48:32.146Z,62.96
2023-03-02T17:50:58.481Z,62.08
2023-03-02T17:53:24.790Z,62.93
2023-03-02T17:55:51.121Z,62.69
2023-03-02T17:58:18.886Z,63.01
2023-03-02T18:00:45.222Z,62.65
2023-03-02T18:03:11.579Z,64.16
2023-03-02T18:05:39.849Z,63.89
2023-03-02T18:08:06.147Z,64.30
2023-03-02T18:10:32.441Z,63.86
2023-03-02T18:12:58.750Z,64.75
2023-03-02T18:15:27.234Z,65.39
2023-03-02T18:17:53.565Z,65.34
2023-03-02T18:20:19.899Z,66.36
2023-03-02T18:22:46.211Z,67.05
2023-03-02T18:25:12.535Z,67.25
2023-03-02T18:27:38.903Z,66.99
2023-03-02T18:30:05.221Z,67.24
2023-03-02T18:32:31.605Z,68.08
2023-03-02T18:34:57.930Z,69.18
2023-03-02T18:37:24.270Z,68.37
2023-03-02T18:39:50.624Z,69.10
2023-03-02T18:42:16.928Z,68.66
2023-03-02T18:44:43.286Z,69.15
2023-03-02T18:47:09.631Z,69.03
2023-03-02T18:49:38.471Z,69.44
2023-03-02T18:52:06.959Z,70.56
2023-03-02T18:54:33.281Z,70.50
2023-03-02T18:57:00.101Z,70.11
2023-03-02T18:59:26.450Z,69.60
2023-03-02T19:01:52.762Z,69.70
2023-03-02T19:04:19.776Z,69.82
2023-03-02T19:06:46.113Z,69.95
2023-03-02T19:09:12.458Z,70.52
2023-03-02T19:11:38.841Z,71.41
2023-03-02T19:14:05.151Z,70.90
2023-03-02T19:16:31.531Z,74.17
2023-03-02T19:18:57.926Z,73.85
2023-03-02T19:21:24.233Z,72.89
2023-03-02T19:23:50.599Z,72.72
2023-03-02T19:26:16.961Z,73.01
2023-03-02T19:28:43.319Z,73.26
2023-03-02T19:31:11.329Z,73.50
2023-03-02T19:33:37.797Z,74.12
2023-03-02T19:36:04.183Z,74.76
2023-03-02T19:38:30.538Z,75.80
2023-03-02T19:40:57.264Z,75.33
2023-03-02T19:43:23.583Z,75.34
2023-03-02T19:45:49.913Z,75.79
2023-03-02T19:48:16.256Z,75.92
2023-03-02T19:50:43.446Z,76.40
2023-03-02T19:53:10.601Z,76.57
2023-03-02T19:55:36.983Z,76.78
2023-03-02T19:58:05.355Z,77.01
2023-03-02T20:00:31.713Z,77.37
2023-03-02T20:02:58.354Z,77.16
2023-03-02T20:05:26.048Z,78.14
2023-03-02T20:07:52.363Z,78.99
2023-03-02T20:10:18.664Z,79.59
2023-03-02T20:12:44.966Z,80.40
2023-03-02T20:15:11.329Z,80.81
2023-03-02T20:17:37.628Z,80.95
2023-03-02T20:20:05.740Z,82.65
2023-03-02T20:22:32.046Z,83.26
2023-03-02T20:24:58.499Z,83.28
2023-03-02T20:27:24.841Z,83.30
2023-03-02T20:29:51.146Z,82.69
2023-03-02T20:32:17.559Z,84.66
2023-03-02T20:34:43.927Z,84.96
2023-03-02T20:37:10.257Z,84.36
2023-03-02T20:39:36.662Z,84.74
2023-03-02T20:42:03.076Z,84.81
2023-03-02T20:44:32.594Z,86.09
2023-03-02T20:46:59.063Z,86.00
2023-03-02T20:49:25.406Z,86.47
2023-03-02T20:51:54.633Z,86.91
2023-03-02T20:54:20.945Z,86.79
2023-03-02T20:56:47.299Z,90.84
2023-03-02T20:59:13.598Z,91.71
2023-03-02T21:01:39.944Z,92.11
2023-03-02T21:04:06.327Z,93.39
2023-03-02T21:06:34.578Z,93.02
2023-03-02T21:09:00.883Z,91.66
2023-03-02T21:11:27.191Z,93.27
2023-03-02T21:13:55.376Z,97.16
2023-03-02T21:16:21.755Z,98.37
2023-03-02T21:18:48.069Z,96.53
2023-03-02T21:21:14.361Z,99.02
2023-03-02T21:23:41.934Z,96.04
2023-03-02T21:26:09.268Z,94.37
2023-03-02T21:28:35.632Z,93.71
2023-03-02T21:31:01.976Z,94.36
2023-03-02T21:33:28.328Z,94.42
2023-03-02T21:35:54.629Z,94.41
2023-03-02T21:38:20.947Z,93.26
2023-03-02T21:40:47.321Z,93.31
2023-03-02T21:43:13.648Z,94.71
2023-03-02T21:45:39.950Z,95.53
2023-03-02T21:48:06.313Z,95.40
2023-03-02T21:50:32.803Z,94.34
2023-03-02T21:52:59.470Z,94.77
2023-03-02T21:55:25.797Z,99.41
2023-03-02T21:57:52.113Z,96.65
2023-03-02T22:00:18.541Z,95.22
2023-03-02T22:02:44.894Z,95.74
2023-03-02T22:05:11.180Z,96.42
2023-03-02T22:07:37.495Z,98.55
2023-03-02T22:10:03.870Z,100.00
2023-03-02T22:12:30.304Z,98.27
2023-03-02T22:14:56.794Z,95.86
2023-03-02T22:17:24.634Z,95.74
2023-03-02T22:19:51.165Z,97.27
2023-03-02T22:22:18.007Z,97.34
2023-03-02T22:24:44.317Z,97.68
2023-03-02T22:27:10.637Z,98.59
2023-03-02T22:29:36.936Z,97.84
2023-03-02T22:32:03.347Z,97.39
2023-03-02T22:34:29.709Z,96.00
2023-03-02T22:36:56.010Z,97.09
2023-03-02T22:39:22.338Z,97.53
2023-03-02T22:41:48.652Z,97.22
2023-03-02T22:44:15.289Z,96.67
2023-03-02T22:46:41.733Z,98.43
2023-03-02T22:49:08.049Z,98.44
2023-03-02T22:51:34.360Z,98.74
2023-03-02T22:54:00.668Z,98.61
2023-03-02T22:56:27.384Z,98.02
2023-03-02T22:58:53.715Z,98.04
2023-03-02T23:01:21.088Z,97.32
2023-03-02T23:03:47.522Z,97.19
2023-03-02T23:06:13.888Z,97.69
2023-03-02T23:08:40.462Z,98.94
2023-03-02T23:11:06.855Z,98.81
2023-03-02T23:13:33.153Z,98.74
2023-03-02T23:15:59.499Z,99.28
2023-03-02T23:18:25.834Z,99.18
2023-03-02T23:20:52.154Z,98.86
2023-03-02T23:23:18.512Z,98.82
2023-03-02T23:25:44.842Z,99.78
2023-03-02T23:28:11.233Z,100.00
2023-03-02T23:30:37.568Z,99.46
2023-03-02T23:33:03.873Z,99.27
2023-03-02T23:35:30.449Z,100.00
2023-03-02T23:37:56.802Z,98.68
2023-03-02T23:40:23.203Z,99.36
2023-03-02T23:42:49.535Z,99.89
2023-03-02T23:45:16.008Z,99.93
2023-03-02T23:47:42.443Z,100.00
2023-03-02T23:50:08.994Z,100.00
2023-03-02T23:52:35.293Z,100.00
2023-03-02T23:55:01.603Z,100.00
2023-03-02T23:57:27.917Z,100.00
2023-03-02T23:59:54.270Z,100.00
